sensor_id;sensor_type;location;lat;lon;timestamp;pressure;altitude;pressure_sealevel;temperature;humidity
50011;BME280;35899;50.352;19.390;2024-01-15T00:00:51;95931.61;;;-0.83;100.00
50011;BME280;35899;50.352;19.390;2024-01-15T00:03:39;95919.17;;;-0.82;100.00
50011;BME280;35899;50.352;19.390;2024-01-15T00:06:06;95909.09;;;-0.81;100.00
50011;BME280;35899;50.352;19.390;2024-01-15T00:08:32;95906.48;;;-0.80;100.00
50011;BME280;35899;50.352;19.390;2024-01-15T00:10:59;95909.29;;;-0.78;100.00
50011;BME280;35899;50.352;19.390;2024-01-15T00:13:25;95905.64;;;-0.76;100.00
50011;BME280;35899;50.352;19.390;2024-01-15T00:15:52;95894.86;;;-0.78;100.00
50011;BME280;35899;50.352;19.390;2024-01-15T00:18:18;95886.04;;;-0.81;100.00
50011;BME280;35899;50.352;19.390;2024-01-15T00:20:45;95884.56;;;-0.83;100.00
50011;BME280;35899;50.352;19.390;2024-01-15T00:23:12;95881.36;;;-0.83;100.00
50011;BME280;35899;50.352;19.390;2024-01-15T00:25:38;95882.34;;;-0.82;100.00
50011;BME280;35899;50.352;19.390;2024-01-15T00:28:05;95882.19;;;-0.83;100.00
50011;BME280;35899;50.352;19.390;2024-01-15T00:30:31;95874.83;;;-0.81;100.00
50011;BME280;35899;50.352;19.390;2024-01-15T00:32:58;95878.85;;;-0.80;100.00
50011;BME280;35899;50.352;19.390;2024-01-15T00:35:25;95874.27;;;-0.81;100.00
50011;BME280;35899;50.352;19.390;2024-01-15T00:37:51;95870.47;;;-0.80;100.00
50011;BME280;35899;50.352;19.390;2024-01-15T00:40:18;95865.61;;;-0.77;100.00
50011;BME280;35899;50.352;19.390;2024-01-15T00:42:45;95866.05;;;-0.76;100.00
50011;BME280;35899;50.352;19.390;2024-01-15T00:45:12;95854.95;;;-0.75;100.00
50011;BME280;35899;50.352;19.390;2024-01-15T00:47:39;95852.30;;;-0.76;100.00
50011;BME280;35899;50.352;19.390;2024-01-15T00:50:09;95853.52;;;-0.76;100.00
50011;BME280;35899;50.352;19.390;2024-01-15T00:52:35;95852.22;;;-0.78;100.00
50011;BME280;35899;50.352;19.390;2024-01-15T00:55:02;95850.39;;;-0.79;100.00
50011;BME280;35899;50.352;19.390;2024-01-15T00:57:28;95846.17;;;-0.79;100.00
50011;BME280;35899;50.352;19.390;2024-01-15T00:59:55;95846.86;;;-0.80;100.00
50011;BME280;35899;50.352;19.390;2024-01-15T01:02:21;95845.24;;;-0.81;100.00
50011;BME280;35899;50.352;19.390;2024-01-15T01:04:48;95846.21;;;-0.80;100.00
50011;BME280;35899;50.352;19.390;2024-01-15T01:07:15;95841.44;;;-0.80;100.00
50011;BME280;35899;50.352;19.390;2024-01-15T01:09:41;95824.27;;;-0.79;100.00
50011;BME280;35899;50.352;19.390;2024-01-15T01:12:08;95821.23;;;-0.80;100.00
50011;BME280;35899;50.352;19.390;2024-01-15T01:14:34;95820.83;;;-0.81;100.00
50011;BME280;35899;50.352;19.390;2024-01-15T01:17:01;95819.59;;;-0.83;100.00
50011;BME280;35899;50.352;19.390;2024-01-15T01:19:27;95816.04;;;-0.84;100.00
50011;BME280;35899;50.352;19.390;2024-01-15T01:21:54;95815.11;;;-0.86;100.00
50011;BME280;35899;50.352;19.390;2024-01-15T01:24:25;95814.45;;;-0.86;100.00
50011;BME280;35899;50.352;19.390;2024-01-15T01:26:51;95808.52;;;-0.86;100.00
50011;BME280;35899;50.352;19.390;2024-01-15T01:29:18;95802.44;;;-0.87;100.00
50011;BME280;35899;50.352;19.390;2024-01-15T01:31:45;95801.20;;;-0.88;100.00
50011;BME280;35899;50.352;19.390;2024-01-15T01:34:15;95795.99;;;-0.89;100.00
50011;BME280;35899;50.352;19.390;2024-01-15T01:36:43;95791.30;;;-0.90;100.00
50011;BME280;35899;50.352;19.390;2024-01-15T01:39:09;95790.31;;;-0.91;100.00
50011;BME280;35899;50.352;19.390;2024-01-15T01:41:36;95787.45;;;-0.91;100.00
50011;BME280;35899;50.352;19.390;2024-01-15T01:44:02;95784.17;;;-0.90;100.00
50011;BME280;35899;50.352;19.390;2024-01-15T01:46:29;95782.89;;;-0.89;100.00
50011;BME280;35899;50.352;19.390;2024-01-15T01:48:56;95776.65;;;-0.86;100.00
50011;BME280;35899;50.352;19.390;2024-01-15T01:51:24;95774.47;;;-0.84;100.00
50011;BME280;35899;50.352;19.390;2024-01-15T01:53:51;95776.63;;;-0.83;100.00
50011;BME280;35899;50.352;19.390;2024-01-15T01:56:18;95778.26;;;-0.82;100.00
50011;BME280;35899;50.352;19.390;2024-01-15T01:58:44;95770.68;;;-0.81;100.00
50011;BME280;35899;50.352;19.390;2024-01-15T02:01:15;95762.31;;;-0.80;100.00
50011;BME280;35899;50.352;19.390;2024-01-15T02:03:42;95758.60;;;-0.80;100.00
50011;BME280;35899;50.352;19.390;2024-01-15T02:06:10;95752.23;;;-0.79;100.00
50011;BME280;35899;50.352;19.390;2024-01-15T02:08:36;95743.55;;;-0.78;100.00
50011;BME280;35899;50.352;19.390;2024-01-15T02:11:03;95743.91;;;-0.79;100.00
50011;BME280;35899;50.352;19.390;2024-01-15T02:13:30;95739.09;;;-0.81;100.00
50011;BME280;35899;50.352;19.390;2024-01-15T02:15:57;95742.95;;;-0.82;100.00
50011;BME280;35899;50.352;19.390;2024-01-15T02:18:23;95741.54;;;-0.84;100.00
50011;BME280;35899;50.352;19.390;2024-01-15T02:20:50;95743.08;;;-0.85;100.00
50011;BME280;35899;50.352;19.390;2024-01-15T02:23:17;95738.00;;;-0.85;100.00
50011;BME280;35899;50.352;19.390;2024-01-15T02:25:45;95734.59;;;-0.84;100.00
50011;BME280;35899;50.352;19.390;2024-01-15T02:28:16;95737.52;;;-0.85;100.00
50011;BME280;35899;50.352;19.390;2024-01-15T02:30:43;95738.81;;;-0.84;100.00
50011;BME280;35899;50.352;19.390;2024-01-15T02:33:11;95736.19;;;-0.83;100.00
50011;BME280;35899;50.352;19.390;2024-01-15T02:35:38;95729.00;;;-0.82;100.00
50011;BME280;35899;50.352;19.390;2024-01-15T02:38:05;95724.60;;;-0.82;100.00
50011;BME280;35899;50.352;19.390;2024-01-15T02:40:32;95723.20;;;-0.84;100.00
50011;BME280;35899;50.352;19.390;2024-01-15T02:42:59;95720.73;;;-0.86;100.00
50011;BME280;35899;50.352;19.390;2024-01-15T02:45:26;95712.98;;;-0.87;100.00
50011;BME280;35899;50.352;19.390;2024-01-15T02:47:53;95707.75;;;-0.87;100.00
50011;BME280;35899;50.352;19.390;2024-01-15T02:50:19;95704.46;;;-0.89;100.00
50011;BME280;35899;50.352;19.390;2024-01-15T02:52:46;95701.06;;;-0.89;100.00
50011;BME280;35899;50.352;19.390;2024-01-15T02:55:12;95696.69;;;-0.90;100.00
50011;BME280;35899;50.352;19.390;2024-01-15T02:57:39;95689.27;;;-0.91;100.00
50011;BME280;35899;50.352;19.390;2024-01-15T03:00:06;95685.38;;;-0.91;100.00
50011;BME280;35899;50.352;19.390;2024-01-15T03:02:36;95682.94;;;-0.92;100.00
50011;BME280;35899;50.352;19.390;2024-01-15T03:05:03;95683.50;;;-0.96;100.00
50011;BME280;35899;50.352;19.390;2024-01-15T03:07:30;95679.52;;;-0.98;100.00
50011;BME280;35899;50.352;19.390;2024-01-15T03:09:56;95671.48;;;-1.00;100.00
50011;BME280;35899;50.352;19.390;2024-01-15T03:12:23;95666.94;;;-1.00;100.00
50011;BME280;35899;50.352;19.390;2024-01-15T03:14:49;95657.27;;;-1.01;100.00
50011;BME280;35899;50.352;19.390;2024-01-15T03:17:16;95658.11;;;-1.00;100.00
50011;BME280;35899;50.352;19.390;2024-01-15T03:19:42;95654.50;;;-1.00;100.00
50011;BME280;35899;50.352;19.390;2024-01-15T03:22:09;95652.28;;;-1.00;100.00
50011;BME280;35899;50.352;19.390;2024-01-15T03:24:36;95650.71;;;-0.99;100.00
50011;BME280;35899;50.352;19.390;2024-01-15T03:27:03;95651.56;;;-0.99;100.00
50011;BME280;35899;50.352;19.390;2024-01-15T03:29:29;95649.02;;;-0.99;100.00
50011;BME280;35899;50.352;19.390;2024-01-15T03:31:55;95645.64;;;-0.99;100.00
50011;BME280;35899;50.352;19.390;2024-01-15T03:34:22;95641.39;;;-0.99;100.00
50011;BME280;35899;50.352;19.390;2024-01-15T03:36:48;95638.48;;;-0.99;100.00
50011;BME280;35899;50.352;19.390;2024-01-15T03:39:15;95630.31;;;-0.98;100.00
50011;BME280;35899;50.352;19.390;2024-01-15T03:41:42;95622.65;;;-0.98;100.00
50011;BME280;35899;50.352;19.390;2024-01-15T03:44:08;95622.48;;;-0.98;100.00
50011;BME280;35899;50.352;19.390;2024-01-15T03:46:35;95619.63;;;-0.98;100.00
50011;BME280;35899;50.352;19.390;2024-01-15T03:49:01;95619.77;;;-1.01;100.00
50011;BME280;35899;50.352;19.390;2024-01-15T03:51:28;95615.69;;;-1.01;100.00
50011;BME280;35899;50.352;19.390;2024-01-15T03:53:54;95611.09;;;-1.00;100.00
50011;BME280;35899;50.352;19.390;2024-01-15T03:56:21;95598.63;;;-0.99;100.00
50011;BME280;35899;50.352;19.390;2024-01-15T03:58:47;95595.77;;;-1.00;100.00
50011;BME280;35899;50.352;19.390;2024-01-15T04:01:14;95604.45;;;-1.00;100.00
50011;BME280;35899;50.352;19.390;2024-01-15T04:03:41;95605.67;;;-1.01;100.00
50011;BME280;35899;50.352;19.390;2024-01-15T04:06:07;95612.50;;;-1.01;100.00
50011;BME280;35899;50.352;19.390;2024-01-15T04:08:34;95612.77;;;-1.03;100.00
50011;BME280;35899;50.352;19.390;2024-01-15T04:11:01;95614.31;;;-1.03;100.00
50011;BME280;35899;50.352;19.390;2024-01-15T04:13:27;95619.06;;;-1.03;100.00
50011;BME280;35899;50.352;19.390;2024-01-15T04:15:54;95605.14;;;-1.03;100.00
50011;BME280;35899;50.352;19.390;2024-01-15T04:18:21;95597.37;;;-1.04;100.00
50011;BME280;35899;50.352;19.390;2024-01-15T04:20:47;95597.52;;;-1.03;100.00
50011;BME280;35899;50.352;19.390;2024-01-15T04:23:14;95601.24;;;-1.03;100.00
50011;BME280;35899;50.352;19.390;2024-01-15T04:25:40;95607.26;;;-1.04;100.00
50011;BME280;35899;50.352;19.390;2024-01-15T04:28:07;95600.27;;;-1.06;100.00
50011;BME280;35899;50.352;19.390;2024-01-15T04:30:33;95605.95;;;-1.08;100.00
50011;BME280;35899;50.352;19.390;2024-01-15T04:33:00;95602.27;;;-1.09;100.00
50011;BME280;35899;50.352;19.390;2024-01-15T04:35:26;95598.07;;;-1.09;100.00
50011;BME280;35899;50.352;19.390;2024-01-15T04:37:53;95595.48;;;-1.09;100.00
50011;BME280;35899;50.352;19.390;2024-01-15T04:40:19;95589.38;;;-1.09;100.00
50011;BME280;35899;50.352;19.390;2024-01-15T04:42:46;95587.72;;;-1.09;100.00
50011;BME280;35899;50.352;19.390;2024-01-15T04:45:13;95589.30;;;-1.10;100.00
50011;BME280;35899;50.352;19.390;2024-01-15T04:47:39;95597.58;;;-1.10;100.00
50011;BME280;35899;50.352;19.390;2024-01-15T04:50:06;95590.99;;;-1.10;100.00
50011;BME280;35899;50.352;19.390;2024-01-15T04:52:33;95581.63;;;-1.10;100.00
50011;BME280;35899;50.352;19.390;2024-01-15T04:54:59;95580.59;;;-1.09;100.00
50011;BME280;35899;50.352;19.390;2024-01-15T04:57:26;95579.23;;;-1.09;100.00
50011;BME280;35899;50.352;19.390;2024-01-15T04:59:52;95585.15;;;-1.09;100.00
50011;BME280;35899;50.352;19.390;2024-01-15T05:02:18;95586.16;;;-1.09;100.00
50011;BME280;35899;50.352;19.390;2024-01-15T05:04:45;95588.58;;;-1.10;100.00
50011;BME280;35899;50.352;19.390;2024-01-15T05:07:11;95589.31;;;-1.10;100.00
50011;BME280;35899;50.352;19.390;2024-01-15T05:09:38;95594.11;;;-1.11;100.00
50011;BME280;35899;50.352;19.390;2024-01-15T05:12:05;95604.81;;;-1.11;100.00
50011;BME280;35899;50.352;19.390;2024-01-15T05:14:31;95595.48;;;-1.11;100.00
50011;BME280;35899;50.352;19.390;2024-01-15T05:16:58;95584.92;;;-1.11;100.00
50011;BME280;35899;50.352;19.390;2024-01-15T05:19:25;95584.22;;;-1.10;100.00
50011;BME280;35899;50.352;19.390;2024-01-15T05:21:51;95578.30;;;-1.10;100.00
50011;BME280;35899;50.352;19.390;2024-01-15T05:24:18;95577.92;;;-1.10;100.00
50011;BME280;35899;50.352;19.390;2024-01-15T05:26:44;95574.73;;;-1.10;100.00
50011;BME280;35899;50.352;19.390;2024-01-15T05:29:11;95573.73;;;-1.11;100.00
50011;BME280;35899;50.352;19.390;2024-01-15T05:31:37;95576.67;;;-1.12;100.00
50011;BME280;35899;50.352;19.390;2024-01-15T05:34:04;95570.77;;;-1.13;100.00
50011;BME280;35899;50.352;19.390;2024-01-15T05:36:31;95572.79;;;-1.12;100.00
50011;BME280;35899;50.352;19.390;2024-01-15T05:38:57;95569.06;;;-1.12;100.00
50011;BME280;35899;50.352;19.390;2024-01-15T05:41:24;95570.42;;;-1.12;100.00
50011;BME280;35899;50.352;19.390;2024-01-15T05:43:51;95569.27;;;-1.13;100.00
50011;BME280;35899;50.352;19.390;2024-01-15T05:46:17;95576.44;;;-1.14;100.00
50011;BME280;35899;50.352;19.390;2024-01-15T05:48:44;95576.64;;;-1.14;100.00
50011;BME280;35899;50.352;19.390;2024-01-15T05:51:11;95573.35;;;-1.16;100.00
50011;BME280;35899;50.352;19.390;2024-01-15T05:53:37;95577.98;;;-1.17;100.00
50011;BME280;35899;50.352;19.390;2024-01-15T05:56:04;95574.52;;;-1.19;100.00
50011;BME280;35899;50.352;19.390;2024-01-15T05:58:30;95569.90;;;-1.18;100.00
50011;BME280;35899;50.352;19.390;2024-01-15T06:00:58;95573.13;;;-1.17;100.00
50011;BME280;35899;50.352;19.390;2024-01-15T06:03:24;95576.25;;;-1.16;100.00
50011;BME280;35899;50.352;19.390;2024-01-15T06:05:51;95577.84;;;-1.17;100.00
50011;BME280;35899;50.352;19.390;2024-01-15T06:08:18;95572.70;;;-1.16;100.00
50011;BME280;35899;50.352;19.390;2024-01-15T06:10:44;95575.52;;;-1.15;100.00
50011;BME280;35899;50.352;19.390;2024-01-15T06:13:11;95572.90;;;-1.14;100.00
50011;BME280;35899;50.352;19.390;2024-01-15T06:15:38;95575.68;;;-1.12;100.00
50011;BME280;35899;50.352;19.390;2024-01-15T06:18:04;95572.09;;;-1.12;100.00
50011;BME280;35899;50.352;19.390;2024-01-15T06:20:31;95572.16;;;-1.10;100.00
50011;BME280;35899;50.352;19.390;2024-01-15T06:22:58;95570.40;;;-1.09;100.00
50011;BME280;35899;50.352;19.390;2024-01-15T06:25:25;95567.25;;;-1.10;100.00
50011;BME280;35899;50.352;19.390;2024-01-15T06:27:51;95573.55;;;-1.11;100.00
50011;BME280;35899;50.352;19.390;2024-01-15T06:30:18;95574.31;;;-1.12;100.00
50011;BME280;35899;50.352;19.390;2024-01-15T06:32:44;95583.00;;;-1.13;100.00
50011;BME280;35899;50.352;19.390;2024-01-15T06:35:11;95582.07;;;-1.11;100.00
50011;BME280;35899;50.352;19.390;2024-01-15T06:37:38;95577.88;;;-1.09;100.00
50011;BME280;35899;50.352;19.390;2024-01-15T06:40:07;95576.28;;;-1.08;100.00
50011;BME280;35899;50.352;19.390;2024-01-15T06:42:34;95578.47;;;-1.08;100.00
50011;BME280;35899;50.352;19.390;2024-01-15T06:45:00;95577.02;;;-1.07;100.00
50011;BME280;35899;50.352;19.390;2024-01-15T06:47:27;95579.20;;;-1.06;100.00
50011;BME280;35899;50.352;19.390;2024-01-15T06:49:57;95585.31;;;-1.06;100.00
50011;BME280;35899;50.352;19.390;2024-01-15T06:52:23;95593.32;;;-1.06;100.00
50011;BME280;35899;50.352;19.390;2024-01-15T06:54:50;95599.38;;;-1.06;100.00
50011;BME280;35899;50.352;19.390;2024-01-15T06:57:17;95602.02;;;-1.05;100.00
50011;BME280;35899;50.352;19.390;2024-01-15T06:59:53;95603.98;;;-1.03;100.00
50011;BME280;35899;50.352;19.390;2024-01-15T07:02:20;95608.55;;;-1.01;100.00
50011;BME280;35899;50.352;19.390;2024-01-15T07:04:46;95609.63;;;-0.99;100.00
50011;BME280;35899;50.352;19.390;2024-01-15T07:07:13;95611.00;;;-0.96;100.00
50011;BME280;35899;50.352;19.390;2024-01-15T07:09:40;95616.41;;;-0.95;100.00
50011;BME280;35899;50.352;19.390;2024-01-15T07:12:07;95622.17;;;-0.95;100.00
50011;BME280;35899;50.352;19.390;2024-01-15T07:14:34;95616.35;;;-0.94;100.00
50011;BME280;35899;50.352;19.390;2024-01-15T07:17:01;95618.84;;;-0.91;100.00
50011;BME280;35899;50.352;19.390;2024-01-15T07:19:29;95621.92;;;-0.89;100.00
50011;BME280;35899;50.352;19.390;2024-01-15T07:21:56;95622.46;;;-0.87;100.00
50011;BME280;35899;50.352;19.390;2024-01-15T07:24:24;95629.61;;;-0.84;100.00
50011;BME280;35899;50.352;19.390;2024-01-15T07:26:51;95628.61;;;-0.81;100.00
50011;BME280;35899;50.352;19.390;2024-01-15T07:29:20;95630.38;;;-0.77;100.00
50011;BME280;35899;50.352;19.390;2024-01-15T07:31:50;95629.92;;;-0.72;100.00
50011;BME280;35899;50.352;19.390;2024-01-15T07:34:19;95632.54;;;-0.68;100.00
50011;BME280;35899;50.352;19.390;2024-01-15T07:36:47;95635.07;;;-0.65;100.00
50011;BME280;35899;50.352;19.390;2024-01-15T07:39:15;95638.61;;;-0.62;100.00
50011;BME280;35899;50.352;19.390;2024-01-15T07:41:44;95633.79;;;-0.58;100.00
50011;BME280;35899;50.352;19.390;2024-01-15T07:44:12;95634.83;;;-0.53;100.00
50011;BME280;35899;50.352;19.390;2024-01-15T07:46:38;95630.86;;;-0.49;100.00
50011;BME280;35899;50.352;19.390;2024-01-15T07:49:05;95631.71;;;-0.47;100.00
50011;BME280;35899;50.352;19.390;2024-01-15T07:51:33;95630.96;;;-0.43;100.00
50011;BME280;35899;50.352;19.390;2024-01-15T07:54:00;95631.01;;;-0.38;100.00
50011;BME280;35899;50.352;19.390;2024-01-15T07:56:34;95637.76;;;-0.32;100.00
50011;BME280;35899;50.352;19.390;2024-01-15T07:59:00;95635.65;;;-0.28;100.00
50011;BME280;35899;50.352;19.390;2024-01-15T08:01:27;95640.91;;;-0.28;100.00
50011;BME280;35899;50.352;19.390;2024-01-15T08:03:54;95641.05;;;-0.33;100.00
50011;BME280;35899;50.352;19.390;2024-01-15T08:06:23;95642.53;;;-0.40;100.00
50011;BME280;35899;50.352;19.390;2024-01-15T08:08:52;95644.18;;;-0.48;100.00
50011;BME280;35899;50.352;19.390;2024-01-15T08:11:18;95644.73;;;-0.48;100.00
50011;BME280;35899;50.352;19.390;2024-01-15T08:13:45;95642.82;;;-0.48;100.00
50011;BME280;35899;50.352;19.390;2024-01-15T08:16:11;95647.14;;;-0.43;100.00
50011;BME280;35899;50.352;19.390;2024-01-15T08:18:38;95654.11;;;-0.41;100.00
50011;BME280;35899;50.352;19.390;2024-01-15T08:21:05;95654.02;;;-0.39;100.00
50011;BME280;35899;50.352;19.390;2024-01-15T08:23:31;95659.42;;;-0.36;100.00
50011;BME280;35899;50.352;19.390;2024-01-15T08:25:58;95663.48;;;-0.35;100.00
50011;BME280;35899;50.352;19.390;2024-01-15T08:28:28;95665.23;;;-0.34;100.00
50011;BME280;35899;50.352;19.390;2024-01-15T08:30:54;95667.77;;;-0.31;100.00
50011;BME280;35899;50.352;19.390;2024-01-15T08:33:21;95665.31;;;-0.21;100.00
50011;BME280;35899;50.352;19.390;2024-01-15T08:35:51;95662.21;;;-0.15;100.00
50011;BME280;35899;50.352;19.390;2024-01-15T08:38:20;95659.02;;;-0.13;100.00
50011;BME280;35899;50.352;19.390;2024-01-15T08:40:48;95660.30;;;-0.09;100.00
50011;BME280;35899;50.352;19.390;2024-01-15T08:43:18;95661.97;;;0.02;100.00
50011;BME280;35899;50.352;19.390;2024-01-15T08:45:44;95659.82;;;0.20;100.00
50011;BME280;35899;50.352;19.390;2024-01-15T08:48:11;95659.64;;;0.43;100.00
50011;BME280;35899;50.352;19.390;2024-01-15T08:50:38;95655.02;;;0.56;100.00
50011;BME280;35899;50.352;19.390;2024-01-15T08:53:04;95656.78;;;0.63;100.00
50011;BME280;35899;50.352;19.390;2024-01-15T08:55:31;95650.88;;;0.65;100.00
50011;BME280;35899;50.352;19.390;2024-01-15T08:57:57;95650.98;;;0.66;100.00
50011;BME280;35899;50.352;19.390;2024-01-15T09:00:27;95652.37;;;0.68;100.00
50011;BME280;35899;50.352;19.390;2024-01-15T09:02:53;95656.98;;;0.70;100.00
50011;BME280;35899;50.352;19.390;2024-01-15T09:05:23;95660.64;;;0.72;100.00
50011;BME280;35899;50.352;19.390;2024-01-15T09:07:54;95658.63;;;0.63;100.00
50011;BME280;35899;50.352;19.390;2024-01-15T09:10:23;95662.16;;;0.59;100.00
50011;BME280;35899;50.352;19.390;2024-01-15T09:12:49;95661.13;;;0.54;100.00
50011;BME280;35899;50.352;19.390;2024-01-15T09:15:16;95669.59;;;0.42;100.00
50011;BME280;35899;50.352;19.390;2024-01-15T09:17:43;95671.98;;;0.26;100.00
50011;BME280;35899;50.352;19.390;2024-01-15T09:20:14;95673.05;;;0.09;100.00
50011;BME280;35899;50.352;19.390;2024-01-15T09:22:41;95676.95;;;-0.01;100.00
50011;BME280;35899;50.352;19.390;2024-01-15T09:25:08;95682.91;;;0.01;100.00
50011;BME280;35899;50.352;19.390;2024-01-15T09:27:36;95683.17;;;0.16;100.00
50011;BME280;35899;50.352;19.390;2024-01-15T09:30:03;95680.33;;;0.34;100.00
50011;BME280;35899;50.352;19.390;2024-01-15T09:32:34;95682.43;;;0.56;100.00
50011;BME280;35899;50.352;19.390;2024-01-15T09:35:01;95685.21;;;0.94;100.00
50011;BME280;35899;50.352;19.390;2024-01-15T09:37:34;95685.26;;;1.43;100.00
50011;BME280;35899;50.352;19.390;2024-01-15T09:40:14;95670.00;;;1.90;100.00
50011;BME280;35899;50.352;19.390;2024-01-15T09:42:53;95664.67;;;2.36;100.00
50011;BME280;35899;50.352;19.390;2024-01-15T09:45:35;95660.07;;;2.98;100.00
50011;BME280;35899;50.352;19.390;2024-01-15T09:48:12;95653.89;;;3.54;99.96
50011;BME280;35899;50.352;19.390;2024-01-15T09:50:56;95653.71;;;4.10;99.44
50011;BME280;35899;50.352;19.390;2024-01-15T09:53:39;95651.43;;;4.61;97.77
50011;BME280;35899;50.352;19.390;2024-01-15T10:00:35;95656.96;;;4.90;91.25
50011;BME280;35899;50.352;19.390;2024-01-15T10:04:04;95649.22;;;4.88;91.18
50011;BME280;35899;50.352;19.390;2024-01-15T10:06:55;95651.18;;;4.43;87.97
50011;BME280;35899;50.352;19.390;2024-01-15T10:09:54;95653.12;;;3.92;85.94
50011;BME280;35899;50.352;19.390;2024-01-15T10:13:09;95654.28;;;3.69;85.82
50011;BME280;35899;50.352;19.390;2024-01-15T10:15:45;95651.23;;;3.46;85.94
50011;BME280;35899;50.352;19.390;2024-01-15T10:18:31;95650.05;;;3.57;87.26
50011;BME280;35899;50.352;19.390;2024-01-15T10:20:59;95649.56;;;3.80;88.08
50011;BME280;35899;50.352;19.390;2024-01-15T10:23:28;95651.04;;;4.07;86.11
50011;BME280;35899;50.352;19.390;2024-01-15T10:25:56;95644.41;;;4.41;86.43
50011;BME280;35899;50.352;19.390;2024-01-15T10:28:26;95646.44;;;4.84;86.00
50011;BME280;35899;50.352;19.390;2024-01-15T10:30:57;95644.71;;;5.21;83.06
50011;BME280;35899;50.352;19.390;2024-01-15T10:33:25;95650.60;;;5.31;80.02
50011;BME280;35899;50.352;19.390;2024-01-15T10:36:00;95648.34;;;5.01;80.21
50011;BME280;35899;50.352;19.390;2024-01-15T10:38:28;95648.09;;;4.58;79.05
50011;BME280;35899;50.352;19.390;2024-01-15T10:40:55;95637.87;;;4.17;76.76
50011;BME280;35899;50.352;19.390;2024-01-15T10:43:23;95640.64;;;3.90;78.07
50011;BME280;35899;50.352;19.390;2024-01-15T10:45:54;95643.64;;;3.65;78.90
50011;BME280;35899;50.352;19.390;2024-01-15T10:48:21;95650.38;;;3.46;79.41
50011;BME280;35899;50.352;19.390;2024-01-15T10:50:48;95646.92;;;3.38;79.84
50011;BME280;35899;50.352;19.390;2024-01-15T10:53:16;95644.65;;;3.41;79.20
50011;BME280;35899;50.352;19.390;2024-01-15T10:55:43;95644.16;;;3.58;78.53
50011;BME280;35899;50.352;19.390;2024-01-15T10:58:13;95643.59;;;3.80;80.21
50011;BME280;35899;50.352;19.390;2024-01-15T11:00:41;95636.10;;;4.08;80.63
50011;BME280;35899;50.352;19.390;2024-01-15T11:03:10;95633.10;;;4.53;79.72
50011;BME280;35899;50.352;19.390;2024-01-15T11:05:43;95630.34;;;4.82;78.67
50011;BME280;35899;50.352;19.390;2024-01-15T11:08:10;95627.84;;;5.10;78.43
50011;BME280;35899;50.352;19.390;2024-01-15T11:10:46;95621.08;;;5.57;77.27
50011;BME280;35899;50.352;19.390;2024-01-15T11:16:03;95623.02;;;5.34;76.93
50011;BME280;35899;50.352;19.390;2024-01-15T11:18:42;95621.20;;;4.85;75.87
50011;BME280;35899;50.352;19.390;2024-01-15T11:23:43;95616.45;;;3.65;73.99
50011;BME280;35899;50.352;19.390;2024-01-15T11:29:06;95621.73;;;3.10;76.45
50011;BME280;35899;50.352;19.390;2024-01-15T11:34:15;95622.77;;;2.69;75.24
50011;BME280;35899;50.352;19.390;2024-01-15T11:41:58;95623.56;;;2.03;77.58
50011;BME280;35899;50.352;19.390;2024-01-15T11:44:27;95626.95;;;1.86;77.45
50011;BME280;35899;50.352;19.390;2024-01-15T11:46:57;95624.69;;;1.75;77.60
50011;BME280;35899;50.352;19.390;2024-01-15T11:52:04;95622.83;;;1.75;79.67
50011;BME280;35899;50.352;19.390;2024-01-15T11:54:33;95621.60;;;1.71;79.68
50011;BME280;35899;50.352;19.390;2024-01-15T11:57:04;95620.48;;;1.65;79.95
50011;BME280;35899;50.352;19.390;2024-01-15T11:59:35;95630.11;;;1.57;79.56
50011;BME280;35899;50.352;19.390;2024-01-15T12:02:02;95628.38;;;1.45;80.28
50011;BME280;35899;50.352;19.390;2024-01-15T12:04:29;95635.00;;;1.38;81.03
50011;BME280;35899;50.352;19.390;2024-01-15T12:06:56;95634.23;;;1.32;81.02
50011;BME280;35899;50.352;19.390;2024-01-15T12:09:23;95635.61;;;1.24;81.15
50011;BME280;35899;50.352;19.390;2024-01-15T12:12:07;95634.19;;;1.15;81.36
50011;BME280;35899;50.352;19.390;2024-01-15T12:14:37;95629.03;;;1.01;80.93
50011;BME280;35899;50.352;19.390;2024-01-15T12:17:12;95629.52;;;0.87;81.53
50011;BME280;35899;50.352;19.390;2024-01-15T12:19:48;95628.17;;;0.76;82.12
50011;BME280;35899;50.352;19.390;2024-01-15T12:22:15;95628.73;;;0.70;82.36
50011;BME280;35899;50.352;19.390;2024-01-15T12:24:47;95625.39;;;0.62;82.37
50011;BME280;35899;50.352;19.390;2024-01-15T12:27:16;95635.95;;;0.54;82.55
50011;BME280;35899;50.352;19.390;2024-01-15T12:29:50;95634.20;;;0.47;82.74
50011;BME280;35899;50.352;19.390;2024-01-15T12:32:19;95631.30;;;0.45;83.21
50011;BME280;35899;50.352;19.390;2024-01-15T12:34:46;95628.29;;;0.44;83.33
50011;BME280;35899;50.352;19.390;2024-01-15T12:37:12;95629.45;;;0.44;83.92
50011;BME280;35899;50.352;19.390;2024-01-15T12:40:11;95621.85;;;0.46;83.99
50011;BME280;35899;50.352;19.390;2024-01-15T12:42:41;95621.21;;;0.43;84.13
50011;BME280;35899;50.352;19.390;2024-01-15T12:45:09;95627.28;;;0.41;84.45
50011;BME280;35899;50.352;19.390;2024-01-15T12:47:36;95629.09;;;0.37;84.71
50011;BME280;35899;50.352;19.390;2024-01-15T12:50:07;95635.04;;;0.34;85.18
50011;BME280;35899;50.352;19.390;2024-01-15T12:52:45;95641.63;;;0.35;84.95
50011;BME280;35899;50.352;19.390;2024-01-15T12:55:11;95639.45;;;0.32;85.13
50011;BME280;35899;50.352;19.390;2024-01-15T12:57:41;95642.23;;;0.31;85.28
50011;BME280;35899;50.352;19.390;2024-01-15T13:00:22;95638.79;;;0.29;85.51
50011;BME280;35899;50.352;19.390;2024-01-15T13:02:55;95640.23;;;0.28;85.86
50011;BME280;35899;50.352;19.390;2024-01-15T13:05:25;95649.45;;;0.27;86.12
50011;BME280;35899;50.352;19.390;2024-01-15T13:07:56;95643.80;;;0.30;86.49
50011;BME280;35899;50.352;19.390;2024-01-15T13:10:31;95648.66;;;0.31;86.46
50011;BME280;35899;50.352;19.390;2024-01-15T13:13:03;95645.94;;;0.31;86.85
50011;BME280;35899;50.352;19.390;2024-01-15T13:15:37;95644.98;;;0.30;86.63